This is the latest recevied weather packets stored in our database for station/object W1WRA. If no packets are shown the sender has not sent any weather packets the latest 10 day(s).
| Time | Temp. | Humidity | Pressure | Rain* | Wind** | Luminosity | Snow |
|---|---|---|---|---|---|---|---|
| 1777569340 | 8.89° C | 96% | 1007.1 hPa | 0.25 mm | - | 85 W/m² | - |
| 1777568720 | 8.89° C | 96% | 1007.1 hPa | 0.76 mm | - | 138 W/m² | - |
| 1777566321 | 8.33° C | 99% | 1007.2 hPa | 2.54 mm | - | 116 W/m² | - |
| 1777564541 | 7.78° C | 99% | 1007.3 hPa | 2.03 mm | - | 89 W/m² | - |
| 1777562122 | 7.78° C | 99% | 1007.5 hPa | 1.27 mm | - | 51 W/m² | - |
| 1777560922 | 7.22° C | 99% | 1007.6 hPa | 1.02 mm | - | 83 W/m² | - |
| 1777560323 | 7.22° C | 99% | 1007.6 hPa | 0.51 mm | - | 42 W/m² | - |
| 1777556724 | 7.22° C | 98% | 1007.7 hPa | 0.25 mm | - | 134 W/m² | - |
| 1777548926 | 6.67° C | 99% | 1008.2 hPa | 0 mm | - | 29 W/m² | - |
| 1777547126 | 6.11° C | 99% | 1008.2 hPa | 0 mm | - | 32 W/m² | - |
| 1777544118 | 6.11° C | 100% | 1008.6 hPa | 0.51 mm | - | 5 W/m² | - |
| 1777539316 | 6.11° C | 100% | 1008.8 hPa | 0 mm | - | 0 W/m² | - |
| 1777534517 | 6.11° C | 99% | 1009.5 hPa | 0 mm | - | 0 W/m² | - |
| 1777532718 | 6.11° C | 99% | 1009.9 hPa | 0 mm | - | 0 W/m² | - |
| 1777530918 | 6.11° C | 99% | 1010 hPa | 0 mm | - | 0 W/m² | - |
| 1777530338 | 6.11° C | 99% | 1010 hPa | 0 mm | - | 0 W/m² | - |
| 1777524916 | 6.11° C | 98% | 1011.1 hPa | 0 mm | - | 0 W/m² | - |
| 1777523717 | 6.11° C | 98% | 1011.3 hPa | 0 mm | - | 0 W/m² | - |
| 1777521917 | 6.11° C | 98% | 1011.6 hPa | 0 mm | - | 0 W/m² | - |
| 1777521316 | 6.11° C | 98% | 1011.6 hPa | 0 mm | - | 0 W/m² | - |
| 1777520736 | 6.11° C | 97% | 1011.7 hPa | 0 mm | - | 0 W/m² | - |
| 1777517117 | 6.67° C | 95% | 1012.7 hPa | 0 mm | - | 0 W/m² | - |
| 1777506918 | 8.33° C | 83% | 1012.9 hPa | 0 mm | - | 0 W/m² | - |
| 1777505715 | 8.89° C | 81% | 1013.1 hPa | 0 mm | - | 3 W/m² | - |
| 1777502116 | 10.56° C | 75% | 1013 hPa | 0 mm | - | 36 W/m² | - |
* Rain latest hour (hover to see other rain measurements)
** Current wind speed in m/s (hover to see current wind gust speed)